sensor_id;sensor_type;location;lat;lon;timestamp;P1;durP1;ratioP1;P2;durP2;ratioP2
7128;SDS011;3606;52.930;8.644;2023-06-19T00:01:43;14.37;;;4.97;;
7128;SDS011;3606;52.930;8.644;2023-06-19T00:04:09;9.53;;;5.87;;
7128;SDS011;3606;52.930;8.644;2023-06-19T00:06:35;9.57;;;5.57;;
7128;SDS011;3606;52.930;8.644;2023-06-19T00:09:01;7.17;;;5.43;;
7128;SDS011;3606;52.930;8.644;2023-06-19T00:11:27;5.80;;;5.23;;
7128;SDS011;3606;52.930;8.644;2023-06-19T00:13:53;7.17;;;5.30;;
7128;SDS011;3606;52.930;8.644;2023-06-19T00:16:19;6.13;;;5.53;;
7128;SDS011;3606;52.930;8.644;2023-06-19T00:18:44;5.57;;;5.07;;
7128;SDS011;3606;52.930;8.644;2023-06-19T00:21:10;8.30;;;5.77;;
7128;SDS011;3606;52.930;8.644;2023-06-19T00:23:36;7.03;;;5.40;;
7128;SDS011;3606;52.930;8.644;2023-06-19T00:26:02;6.23;;;5.33;;
7128;SDS011;3606;52.930;8.644;2023-06-19T00:28:28;5.37;;;4.90;;
7128;SDS011;3606;52.930;8.644;2023-06-19T00:30:54;8.13;;;5.60;;
7128;SDS011;3606;52.930;8.644;2023-06-19T00:33:20;6.57;;;5.00;;
7128;SDS011;3606;52.930;8.644;2023-06-19T00:35:46;6.53;;;5.13;;
7128;SDS011;3606;52.930;8.644;2023-06-19T00:38:13;5.80;;;5.20;;
7128;SDS011;3606;52.930;8.644;2023-06-19T00:40:38;5.50;;;4.97;;
7128;SDS011;3606;52.930;8.644;2023-06-19T00:43:05;5.97;;;5.37;;
7128;SDS011;3606;52.930;8.644;2023-06-19T00:45:31;5.13;;;4.63;;
7128;SDS011;3606;52.930;8.644;2023-06-19T00:47:57;5.87;;;5.10;;
7128;SDS011;3606;52.930;8.644;2023-06-19T00:50:24;5.23;;;4.60;;
7128;SDS011;3606;52.930;8.644;2023-06-19T00:52:50;7.60;;;5.03;;
7128;SDS011;3606;52.930;8.644;2023-06-19T00:55:16;6.90;;;5.37;;
7128;SDS011;3606;52.930;8.644;2023-06-19T00:57:42;5.63;;;4.73;;
7128;SDS011;3606;52.930;8.644;2023-06-19T01:00:10;6.93;;;5.30;;
7128;SDS011;3606;52.930;8.644;2023-06-19T01:02:37;6.47;;;4.97;;
7128;SDS011;3606;52.930;8.644;2023-06-19T01:05:03;5.80;;;5.27;;
7128;SDS011;3606;52.930;8.644;2023-06-19T01:07:44;5.70;;;4.43;;
7128;SDS011;3606;52.930;8.644;2023-06-19T01:10:24;6.60;;;4.90;;
7128;SDS011;3606;52.930;8.644;2023-06-19T01:13:44;6.87;;;5.00;;
7128;SDS011;3606;52.930;8.644;2023-06-19T01:16:01;6.20;;;4.70;;
7128;SDS011;3606;52.930;8.644;2023-06-19T01:18:29;5.60;;;4.93;;
7128;SDS011;3606;52.930;8.644;2023-06-19T01:20:56;6.73;;;5.20;;
7128;SDS011;3606;52.930;8.644;2023-06-19T01:23:33;5.40;;;4.90;;
7128;SDS011;3606;52.930;8.644;2023-06-19T01:25:58;9.03;;;5.07;;
7128;SDS011;3606;52.930;8.644;2023-06-19T01:28:24;5.30;;;4.80;;
7128;SDS011;3606;52.930;8.644;2023-06-19T01:30:51;6.43;;;5.03;;
7128;SDS011;3606;52.930;8.644;2023-06-19T01:33:28;4.93;;;4.40;;
7128;SDS011;3606;52.930;8.644;2023-06-19T01:36:00;5.23;;;4.70;;
7128;SDS011;3606;52.930;8.644;2023-06-19T01:38:28;7.17;;;4.87;;
7128;SDS011;3606;52.930;8.644;2023-06-19T01:41:02;7.73;;;5.23;;
7128;SDS011;3606;52.930;8.644;2023-06-19T01:43:29;6.17;;;5.00;;
7128;SDS011;3606;52.930;8.644;2023-06-19T01:45:59;5.27;;;4.77;;
7128;SDS011;3606;52.930;8.644;2023-06-19T01:48:25;5.40;;;4.87;;
7128;SDS011;3606;52.930;8.644;2023-06-19T01:50:54;5.77;;;4.87;;
7128;SDS011;3606;52.930;8.644;2023-06-19T01:53:20;8.27;;;5.03;;
7128;SDS011;3606;52.930;8.644;2023-06-19T01:55:54;8.27;;;5.00;;
7128;SDS011;3606;52.930;8.644;2023-06-19T01:58:20;8.87;;;5.67;;
7128;SDS011;3606;52.930;8.644;2023-06-19T02:00:46;6.73;;;5.30;;
7128;SDS011;3606;52.930;8.644;2023-06-19T02:03:12;6.60;;;5.40;;
7128;SDS011;3606;52.930;8.644;2023-06-19T02:05:40;6.17;;;4.90;;
7128;SDS011;3606;52.930;8.644;2023-06-19T02:08:14;6.17;;;5.47;;
7128;SDS011;3606;52.930;8.644;2023-06-19T02:13:18;6.27;;;5.23;;
7128;SDS011;3606;52.930;8.644;2023-06-19T02:15:51;8.73;;;4.67;;
7128;SDS011;3606;52.930;8.644;2023-06-19T02:18:25;5.70;;;5.03;;
7128;SDS011;3606;52.930;8.644;2023-06-19T02:21:11;5.33;;;4.83;;
7128;SDS011;3606;52.930;8.644;2023-06-19T02:23:37;7.13;;;5.20;;
7128;SDS011;3606;52.930;8.644;2023-06-19T02:26:12;7.17;;;5.70;;
7128;SDS011;3606;52.930;8.644;2023-06-19T02:29:18;5.47;;;4.93;;
7128;SDS011;3606;52.930;8.644;2023-06-19T02:31:59;7.70;;;5.60;;
7128;SDS011;3606;52.930;8.644;2023-06-19T02:34:27;7.10;;;5.30;;
7128;SDS011;3606;52.930;8.644;2023-06-19T02:36:53;7.57;;;5.07;;
7128;SDS011;3606;52.930;8.644;2023-06-19T02:39:21;6.07;;;4.90;;
7128;SDS011;3606;52.930;8.644;2023-06-19T02:44:29;6.60;;;5.00;;
7128;SDS011;3606;52.930;8.644;2023-06-19T02:47:09;6.63;;;5.00;;
7128;SDS011;3606;52.930;8.644;2023-06-19T02:49:38;5.57;;;5.03;;
7128;SDS011;3606;52.930;8.644;2023-06-19T02:52:04;5.97;;;4.87;;
7128;SDS011;3606;52.930;8.644;2023-06-19T02:57:59;6.27;;;4.97;;
7128;SDS011;3606;52.930;8.644;2023-06-19T03:07:00;7.53;;;5.20;;
7128;SDS011;3606;52.930;8.644;2023-06-19T03:09:34;5.43;;;4.60;;
7128;SDS011;3606;52.930;8.644;2023-06-19T03:11:59;7.60;;;4.97;;
7128;SDS011;3606;52.930;8.644;2023-06-19T03:14:25;8.63;;;5.23;;
7128;SDS011;3606;52.930;8.644;2023-06-19T03:16:54;6.83;;;5.07;;
7128;SDS011;3606;52.930;8.644;2023-06-19T03:19:22;6.37;;;5.13;;
7128;SDS011;3606;52.930;8.644;2023-06-19T03:21:50;6.20;;;4.63;;
7128;SDS011;3606;52.930;8.644;2023-06-19T03:24:19;5.20;;;4.70;;
7128;SDS011;3606;52.930;8.644;2023-06-19T03:26:45;5.80;;;4.93;;
7128;SDS011;3606;52.930;8.644;2023-06-19T03:29:16;4.93;;;4.43;;
7128;SDS011;3606;52.930;8.644;2023-06-19T03:31:48;6.57;;;5.23;;
7128;SDS011;3606;52.930;8.644;2023-06-19T03:34:18;7.33;;;5.43;;
7128;SDS011;3606;52.930;8.644;2023-06-19T03:43:14;9.30;;;5.00;;
7128;SDS011;3606;52.930;8.644;2023-06-19T03:45:56;6.60;;;5.50;;
7128;SDS011;3606;52.930;8.644;2023-06-19T03:48:48;5.63;;;4.90;;
7128;SDS011;3606;52.930;8.644;2023-06-19T03:51:22;5.90;;;5.30;;
7128;SDS011;3606;52.930;8.644;2023-06-19T03:53:56;7.30;;;5.20;;
7128;SDS011;3606;52.930;8.644;2023-06-19T03:56:30;6.17;;;5.17;;
7128;SDS011;3606;52.930;8.644;2023-06-19T03:58:56;5.70;;;5.03;;
7128;SDS011;3606;52.930;8.644;2023-06-19T04:01:33;6.37;;;5.43;;
7128;SDS011;3606;52.930;8.644;2023-06-19T04:04:07;6.17;;;5.47;;
7128;SDS011;3606;52.930;8.644;2023-06-19T04:06:49;7.97;;;5.50;;
7128;SDS011;3606;52.930;8.644;2023-06-19T04:09:31;6.03;;;5.53;;
7128;SDS011;3606;52.930;8.644;2023-06-19T04:12:20;6.00;;;5.40;;
7128;SDS011;3606;52.930;8.644;2023-06-19T04:14:55;8.23;;;5.47;;
7128;SDS011;3606;52.930;8.644;2023-06-19T04:17:20;8.63;;;4.93;;
7128;SDS011;3606;52.930;8.644;2023-06-19T04:19:49;5.50;;;4.80;;
7128;SDS011;3606;52.930;8.644;2023-06-19T04:22:28;5.93;;;5.33;;
7128;SDS011;3606;52.930;8.644;2023-06-19T04:24:53;6.73;;;5.33;;
7128;SDS011;3606;52.930;8.644;2023-06-19T04:27:27;5.20;;;4.70;;
7128;SDS011;3606;52.930;8.644;2023-06-19T04:30:04;7.70;;;5.30;;
7128;SDS011;3606;52.930;8.644;2023-06-19T04:32:52;5.90;;;4.73;;
7128;SDS011;3606;52.930;8.644;2023-06-19T04:35:20;5.80;;;5.17;;
7128;SDS011;3606;52.930;8.644;2023-06-19T04:38:12;9.57;;;5.20;;
7128;SDS011;3606;52.930;8.644;2023-06-19T04:40:52;8.77;;;5.50;;
7128;SDS011;3606;52.930;8.644;2023-06-19T04:43:46;6.43;;;5.50;;
7128;SDS011;3606;52.930;8.644;2023-06-19T04:46:17;6.17;;;5.30;;
7128;SDS011;3606;52.930;8.644;2023-06-19T04:51:40;6.50;;;5.37;;
7128;SDS011;3606;52.930;8.644;2023-06-19T04:54:12;6.90;;;5.17;;
7128;SDS011;3606;52.930;8.644;2023-06-19T04:56:52;6.67;;;5.43;;
7128;SDS011;3606;52.930;8.644;2023-06-19T05:02:45;9.47;;;5.17;;
7128;SDS011;3606;52.930;8.644;2023-06-19T05:05:45;5.47;;;4.80;;
7128;SDS011;3606;52.930;8.644;2023-06-19T05:08:25;5.80;;;5.20;;
7128;SDS011;3606;52.930;8.644;2023-06-19T05:14:24;5.30;;;4.80;;
7128;SDS011;3606;52.930;8.644;2023-06-19T05:16:50;6.07;;;5.30;;
7128;SDS011;3606;52.930;8.644;2023-06-19T05:19:16;8.00;;;5.00;;
7128;SDS011;3606;52.930;8.644;2023-06-19T05:21:58;5.93;;;5.33;;
7128;SDS011;3606;52.930;8.644;2023-06-19T05:24:27;6.23;;;4.97;;
7128;SDS011;3606;52.930;8.644;2023-06-19T05:27:02;8.73;;;5.00;;
7128;SDS011;3606;52.930;8.644;2023-06-19T05:29:33;5.80;;;4.70;;
7128;SDS011;3606;52.930;8.644;2023-06-19T05:31:59;5.43;;;4.70;;
7128;SDS011;3606;52.930;8.644;2023-06-19T05:34:25;8.98;;;5.78;;
7128;SDS011;3606;52.930;8.644;2023-06-19T05:36:50;8.93;;;4.95;;
7128;SDS011;3606;52.930;8.644;2023-06-19T05:39:16;5.90;;;5.30;;
7128;SDS011;3606;52.930;8.644;2023-06-19T05:41:43;5.88;;;4.90;;
7128;SDS011;3606;52.930;8.644;2023-06-19T05:44:10;6.72;;;5.18;;
7128;SDS011;3606;52.930;8.644;2023-06-19T05:46:40;7.28;;;4.93;;
7128;SDS011;3606;52.930;8.644;2023-06-19T05:49:05;6.30;;;5.38;;
7128;SDS011;3606;52.930;8.644;2023-06-19T05:51:31;7.72;;;5.53;;
7128;SDS011;3606;52.930;8.644;2023-06-19T05:53:57;5.37;;;4.93;;
7128;SDS011;3606;52.930;8.644;2023-06-19T05:56:28;7.82;;;5.60;;
7128;SDS011;3606;52.930;8.644;2023-06-19T05:58:57;7.18;;;5.72;;
7128;SDS011;3606;52.930;8.644;2023-06-19T06:01:23;7.43;;;5.28;;
7128;SDS011;3606;52.930;8.644;2023-06-19T06:03:49;7.22;;;5.35;;
7128;SDS011;3606;52.930;8.644;2023-06-19T06:06:14;6.00;;;5.40;;
7128;SDS011;3606;52.930;8.644;2023-06-19T06:08:40;8.38;;;6.10;;
7128;SDS011;3606;52.930;8.644;2023-06-19T06:11:06;7.05;;;5.82;;
7128;SDS011;3606;52.930;8.644;2023-06-19T06:13:31;6.75;;;6.03;;
7128;SDS011;3606;52.930;8.644;2023-06-19T06:15:57;5.82;;;5.18;;
7128;SDS011;3606;52.930;8.644;2023-06-19T06:18:23;5.50;;;5.00;;
7128;SDS011;3606;52.930;8.644;2023-06-19T06:20:48;5.85;;;5.25;;
7128;SDS011;3606;52.930;8.644;2023-06-19T06:23:14;6.97;;;5.05;;
7128;SDS011;3606;52.930;8.644;2023-06-19T06:25:40;5.70;;;5.13;;
7128;SDS011;3606;52.930;8.644;2023-06-19T06:28:05;5.47;;;4.97;;
7128;SDS011;3606;52.930;8.644;2023-06-19T06:30:31;5.68;;;5.15;;
7128;SDS011;3606;52.930;8.644;2023-06-19T06:32:56;7.97;;;5.65;;
7128;SDS011;3606;52.930;8.644;2023-06-19T06:35:23;5.97;;;5.38;;
7128;SDS011;3606;52.930;8.644;2023-06-19T06:37:48;7.63;;;5.50;;
7128;SDS011;3606;52.930;8.644;2023-06-19T06:40:15;6.57;;;5.75;;
7128;SDS011;3606;52.930;8.644;2023-06-19T06:42:40;5.80;;;5.28;;
7128;SDS011;3606;52.930;8.644;2023-06-19T06:45:06;6.53;;;5.25;;
7128;SDS011;3606;52.930;8.644;2023-06-19T06:47:33;5.80;;;5.20;;
7128;SDS011;3606;52.930;8.644;2023-06-19T06:50:01;5.97;;;5.47;;
7128;SDS011;3606;52.930;8.644;2023-06-19T06:52:27;10.38;;;5.82;;
7128;SDS011;3606;52.930;8.644;2023-06-19T06:54:53;8.77;;;5.47;;
7128;SDS011;3606;52.930;8.644;2023-06-19T06:57:18;6.78;;;5.55;;
7128;SDS011;3606;52.930;8.644;2023-06-19T06:59:44;7.65;;;5.40;;
7128;SDS011;3606;52.930;8.644;2023-06-19T07:02:10;7.60;;;5.90;;
7128;SDS011;3606;52.930;8.644;2023-06-19T07:04:35;9.23;;;5.70;;
7128;SDS011;3606;52.930;8.644;2023-06-19T07:07:01;6.05;;;5.45;;
7128;SDS011;3606;52.930;8.644;2023-06-19T07:09:28;6.03;;;5.15;;
7128;SDS011;3606;52.930;8.644;2023-06-19T07:11:54;7.07;;;5.50;;
7128;SDS011;3606;52.930;8.644;2023-06-19T07:14:20;7.72;;;5.65;;
7128;SDS011;3606;52.930;8.644;2023-06-19T07:16:45;6.00;;;4.82;;
7128;SDS011;3606;52.930;8.644;2023-06-19T07:19:11;5.60;;;5.07;;
7128;SDS011;3606;52.930;8.644;2023-06-19T07:21:37;4.90;;;4.50;;
7128;SDS011;3606;52.930;8.644;2023-06-19T07:24:04;6.78;;;4.80;;
7128;SDS011;3606;52.930;8.644;2023-06-19T07:26:30;6.03;;;4.95;;
7128;SDS011;3606;52.930;8.644;2023-06-19T07:28:56;6.03;;;5.18;;
7128;SDS011;3606;52.930;8.644;2023-06-19T07:31:21;5.28;;;4.70;;
7128;SDS011;3606;52.930;8.644;2023-06-19T07:33:47;6.97;;;4.70;;
7128;SDS011;3606;52.930;8.644;2023-06-19T07:36:13;6.03;;;4.90;;
7128;SDS011;3606;52.930;8.644;2023-06-19T07:38:43;5.28;;;4.78;;
7128;SDS011;3606;52.930;8.644;2023-06-19T07:41:09;6.93;;;5.43;;
7128;SDS011;3606;52.930;8.644;2023-06-19T07:43:36;5.60;;;5.07;;
7128;SDS011;3606;52.930;8.644;2023-06-19T07:46:02;6.60;;;5.68;;
7128;SDS011;3606;52.930;8.644;2023-06-19T07:48:28;5.15;;;4.68;;
7128;SDS011;3606;52.930;8.644;2023-06-19T07:50:54;8.05;;;5.43;;
7128;SDS011;3606;52.930;8.644;2023-06-19T07:53:19;5.80;;;5.30;;
7128;SDS011;3606;52.930;8.644;2023-06-19T07:55:45;5.68;;;5.07;;
7128;SDS011;3606;52.930;8.644;2023-06-19T07:58:11;6.15;;;5.35;;
7128;SDS011;3606;52.930;8.644;2023-06-19T08:00:37;6.70;;;5.40;;
7128;SDS011;3606;52.930;8.644;2023-06-19T08:03:02;5.47;;;4.97;;
7128;SDS011;3606;52.930;8.644;2023-06-19T08:05:28;6.85;;;5.40;;
7128;SDS011;3606;52.930;8.644;2023-06-19T08:07:53;5.20;;;4.70;;
7128;SDS011;3606;52.930;8.644;2023-06-19T08:10:19;5.15;;;4.57;;
7128;SDS011;3606;52.930;8.644;2023-06-19T08:12:44;6.68;;;4.57;;
7128;SDS011;3606;52.930;8.644;2023-06-19T08:15:10;5.25;;;4.32;;
7128;SDS011;3606;52.930;8.644;2023-06-19T08:17:38;6.28;;;4.15;;
7128;SDS011;3606;52.930;8.644;2023-06-19T08:20:04;4.63;;;4.00;;
7128;SDS011;3606;52.930;8.644;2023-06-19T08:22:30;4.53;;;4.07;;
7128;SDS011;3606;52.930;8.644;2023-06-19T08:24:56;3.90;;;3.50;;
7128;SDS011;3606;52.930;8.644;2023-06-19T08:27:22;3.67;;;3.33;;
7128;SDS011;3606;52.930;8.644;2023-06-19T08:29:47;4.90;;;3.17;;
7128;SDS011;3606;52.930;8.644;2023-06-19T08:32:13;5.45;;;3.70;;
7128;SDS011;3606;52.930;8.644;2023-06-19T08:34:38;7.80;;;3.80;;
7128;SDS011;3606;52.930;8.644;2023-06-19T08:37:05;4.15;;;3.58;;
7128;SDS011;3606;52.930;8.644;2023-06-19T08:39:31;5.10;;;3.90;;
7128;SDS011;3606;52.930;8.644;2023-06-19T08:41:56;3.45;;;3.15;;
7128;SDS011;3606;52.930;8.644;2023-06-19T08:44:22;7.63;;;4.10;;
7128;SDS011;3606;52.930;8.644;2023-06-19T08:46:48;4.57;;;3.40;;
7128;SDS011;3606;52.930;8.644;2023-06-19T08:49:13;4.03;;;3.35;;
7128;SDS011;3606;52.930;8.644;2023-06-19T08:51:42;4.15;;;3.58;;
7128;SDS011;3606;52.930;8.644;2023-06-19T08:54:08;3.95;;;3.30;;
7128;SDS011;3606;52.930;8.644;2023-06-19T08:56:34;4.55;;;3.70;;
7128;SDS011;3606;52.930;8.644;2023-06-19T08:59:16;4.68;;;4.28;;
7128;SDS011;3606;52.930;8.644;2023-06-19T09:01:49;4.55;;;4.07;;
7128;SDS011;3606;52.930;8.644;2023-06-19T09:04:20;5.30;;;3.75;;
7128;SDS011;3606;52.930;8.644;2023-06-19T09:06:50;4.00;;;3.30;;
7128;SDS011;3606;52.930;8.644;2023-06-19T09:09:18;8.32;;;3.20;;
7128;SDS011;3606;52.930;8.644;2023-06-19T09:11:56;8.05;;;2.67;;
7128;SDS011;3606;52.930;8.644;2023-06-19T09:14:30;3.80;;;2.97;;
7128;SDS011;3606;52.930;8.644;2023-06-19T09:17:03;6.28;;;3.35;;
7128;SDS011;3606;52.930;8.644;2023-06-19T09:19:30;3.42;;;3.13;;
7128;SDS011;3606;52.930;8.644;2023-06-19T09:24:36;3.70;;;3.35;;
7128;SDS011;3606;52.930;8.644;2023-06-19T09:27:09;3.45;;;3.15;;
7128;SDS011;3606;52.930;8.644;2023-06-19T09:29:39;4.32;;;3.67;;
7128;SDS011;3606;52.930;8.644;2023-06-19T09:32:15;6.90;;;3.33;;
7128;SDS011;3606;52.930;8.644;2023-06-19T09:34:41;6.82;;;3.17;;
7128;SDS011;3606;52.930;8.644;2023-06-19T09:37:07;16.67;;;3.58;;
7128;SDS011;3606;52.930;8.644;2023-06-19T09:39:35;5.13;;;3.42;;
7128;SDS011;3606;52.930;8.644;2023-06-19T09:42:02;5.50;;;3.15;;
7128;SDS011;3606;52.930;8.644;2023-06-19T09:44:35;4.50;;;3.25;;
7128;SDS011;3606;52.930;8.644;2023-06-19T09:47:07;6.45;;;2.90;;
7128;SDS011;3606;52.930;8.644;2023-06-19T09:49:53;3.45;;;2.90;;
7128;SDS011;3606;52.930;8.644;2023-06-19T09:52:20;8.38;;;3.20;;
7128;SDS011;3606;52.930;8.644;2023-06-19T09:54:50;3.60;;;3.08;;
7128;SDS011;3606;52.930;8.644;2023-06-19T09:57:17;2.85;;;2.45;;
7128;SDS011;3606;52.930;8.644;2023-06-19T09:59:43;6.55;;;2.63;;
7128;SDS011;3606;52.930;8.644;2023-06-19T10:02:14;8.88;;;2.60;;
7128;SDS011;3606;52.930;8.644;2023-06-19T10:04:41;5.05;;;2.33;;
7128;SDS011;3606;52.930;8.644;2023-06-19T10:07:20;3.60;;;2.80;;
7128;SDS011;3606;52.930;8.644;2023-06-19T10:09:58;6.80;;;2.75;;
7128;SDS011;3606;52.930;8.644;2023-06-19T10:15:17;2.88;;;2.60;;
7128;SDS011;3606;52.930;8.644;2023-06-19T10:17:48;2.83;;;2.60;;
7128;SDS011;3606;52.930;8.644;2023-06-19T10:20:28;3.25;;;2.95;;
7128;SDS011;3606;52.930;8.644;2023-06-19T10:23:07;2.70;;;2.50;;
7128;SDS011;3606;52.930;8.644;2023-06-19T10:25:46;3.63;;;2.60;;
7128;SDS011;3606;52.930;8.644;2023-06-19T10:31:03;3.00;;;2.70;;
7128;SDS011;3606;52.930;8.644;2023-06-19T10:33:32;2.60;;;2.40;;
7128;SDS011;3606;52.930;8.644;2023-06-19T10:35:59;3.15;;;2.85;;
7128;SDS011;3606;52.930;8.644;2023-06-19T10:38:26;2.90;;;2.67;;
7128;SDS011;3606;52.930;8.644;2023-06-19T10:40:52;3.30;;;3.00;;
7128;SDS011;3606;52.930;8.644;2023-06-19T10:43:21;3.17;;;2.88;;
7128;SDS011;3606;52.930;8.644;2023-06-19T10:45:50;3.22;;;2.92;;
7128;SDS011;3606;52.930;8.644;2023-06-19T10:48:22;3.53;;;2.83;;
7128;SDS011;3606;52.930;8.644;2023-06-19T10:50:49;3.58;;;2.85;;
7128;SDS011;3606;52.930;8.644;2023-06-19T10:53:25;3.70;;;2.70;;
7128;SDS011;3606;52.930;8.644;2023-06-19T10:55:59;3.45;;;2.90;;
7128;SDS011;3606;52.930;8.644;2023-06-19T10:58:26;2.88;;;2.47;;
7128;SDS011;3606;52.930;8.644;2023-06-19T11:00:52;2.78;;;2.50;;
7128;SDS011;3606;52.930;8.644;2023-06-19T11:03:19;4.15;;;2.70;;
7128;SDS011;3606;52.930;8.644;2023-06-19T11:05:45;2.90;;;2.60;;
7128;SDS011;3606;52.930;8.644;2023-06-19T11:08:16;3.33;;;2.80;;
7128;SDS011;3606;52.930;8.644;2023-06-19T11:10:43;3.72;;;2.88;;
7128;SDS011;3606;52.930;8.644;2023-06-19T11:13:12;3.10;;;2.80;;
7128;SDS011;3606;52.930;8.644;2023-06-19T11:15:42;6.10;;;3.28;;
7128;SDS011;3606;52.930;8.644;2023-06-19T11:18:08;3.30;;;3.00;;
7128;SDS011;3606;52.930;8.644;2023-06-19T11:20:44;6.45;;;3.22;;
7128;SDS011;3606;52.930;8.644;2023-06-19T11:23:10;7.25;;;3.30;;
7128;SDS011;3606;52.930;8.644;2023-06-19T11:25:36;3.60;;;3.30;;
7128;SDS011;3606;52.930;8.644;2023-06-19T11:28:03;4.88;;;2.95;;
7128;SDS011;3606;52.930;8.644;2023-06-19T11:30:30;3.58;;;2.80;;
7128;SDS011;3606;52.930;8.644;2023-06-19T11:32:57;9.65;;;3.15;;
7128;SDS011;3606;52.930;8.644;2023-06-19T11:35:23;3.10;;;2.80;;
7128;SDS011;3606;52.930;8.644;2023-06-19T11:37:48;6.50;;;3.22;;
7128;SDS011;3606;52.930;8.644;2023-06-19T11:40:14;5.50;;;3.10;;
7128;SDS011;3606;52.930;8.644;2023-06-19T11:42:46;6.00;;;3.67;;
7128;SDS011;3606;52.930;8.644;2023-06-19T11:45:19;5.28;;;3.30;;
7128;SDS011;3606;52.930;8.644;2023-06-19T11:47:45;3.67;;;3.17;;
7128;SDS011;3606;52.930;8.644;2023-06-19T11:50:12;4.10;;;3.53;;
7128;SDS011;3606;52.930;8.644;2023-06-19T11:52:41;3.83;;;3.42;;
7128;SDS011;3606;52.930;8.644;2023-06-19T11:55:08;3.78;;;3.33;;
7128;SDS011;3606;52.930;8.644;2023-06-19T11:57:34;5.85;;;3.97;;
7128;SDS011;3606;52.930;8.644;2023-06-19T12:00:00;4.35;;;3.90;;
7128;SDS011;3606;52.930;8.644;2023-06-19T12:02:25;4.25;;;3.85;;
7128;SDS011;3606;52.930;8.644;2023-06-19T12:04:51;4.68;;;4.28;;
7128;SDS011;3606;52.930;8.644;2023-06-19T12:07:17;5.20;;;2.95;;
7128;SDS011;3606;52.930;8.644;2023-06-19T12:09:43;4.20;;;3.80;;
7128;SDS011;3606;52.930;8.644;2023-06-19T12:12:09;6.60;;;3.83;;
7128;SDS011;3606;52.930;8.644;2023-06-19T12:14:35;4.47;;;4.07;;
7128;SDS011;3606;52.930;8.644;2023-06-19T12:17:00;7.78;;;3.75;;
7128;SDS011;3606;52.930;8.644;2023-06-19T12:19:26;5.28;;;4.07;;
7128;SDS011;3606;52.930;8.644;2023-06-19T12:21:52;4.10;;;3.78;;
7128;SDS011;3606;52.930;8.644;2023-06-19T12:24:18;4.20;;;3.80;;
7128;SDS011;3606;52.930;8.644;2023-06-19T12:26:44;3.83;;;3.45;;
7128;SDS011;3606;52.930;8.644;2023-06-19T12:29:10;4.60;;;3.58;;
7128;SDS011;3606;52.930;8.644;2023-06-19T12:31:35;7.15;;;4.10;;
7128;SDS011;3606;52.930;8.644;2023-06-19T12:34:01;3.47;;;3.17;;
7128;SDS011;3606;52.930;8.644;2023-06-19T12:36:27;5.35;;;3.72;;
7128;SDS011;3606;52.930;8.644;2023-06-19T12:38:53;4.20;;;3.80;;
7128;SDS011;3606;52.930;8.644;2023-06-19T12:41:22;4.90;;;4.40;;
7128;SDS011;3606;52.930;8.644;2023-06-19T12:43:47;4.47;;;3.72;;
7128;SDS011;3606;52.930;8.644;2023-06-19T12:46:13;5.47;;;4.05;;
7128;SDS011;3606;52.930;8.644;2023-06-19T12:48:40;4.28;;;3.88;;
7128;SDS011;3606;52.930;8.644;2023-06-19T12:51:06;4.13;;;3.80;;
7128;SDS011;3606;52.930;8.644;2023-06-19T12:53:32;4.63;;;3.88;;
7128;SDS011;3606;52.930;8.644;2023-06-19T12:55:58;3.80;;;3.50;;
7128;SDS011;3606;52.930;8.644;2023-06-19T12:58:24;4.47;;;4.07;;
7128;SDS011;3606;52.930;8.644;2023-06-19T13:00:50;3.85;;;3.50;;
7128;SDS011;3606;52.930;8.644;2023-06-19T13:03:16;4.07;;;3.67;;
7128;SDS011;3606;52.930;8.644;2023-06-19T13:05:41;4.78;;;3.55;;
7128;SDS011;3606;52.930;8.644;2023-06-19T13:08:07;3.95;;;3.65;;
7128;SDS011;3606;52.930;8.644;2023-06-19T13:10:33;3.63;;;3.33;;
7128;SDS011;3606;52.930;8.644;2023-06-19T13:12:59;4.15;;;3.28;;
7128;SDS011;3606;52.930;8.644;2023-06-19T13:15:24;4.40;;;3.65;;
7128;SDS011;3606;52.930;8.644;2023-06-19T13:17:50;4.22;;;3.55;;
7128;SDS011;3606;52.930;8.644;2023-06-19T13:20:16;4.57;;;3.30;;
7128;SDS011;3606;52.930;8.644;2023-06-19T13:22:42;4.40;;;3.90;;
7128;SDS011;3606;52.930;8.644;2023-06-19T13:25:08;5.95;;;3.90;;
7128;SDS011;3606;52.930;8.644;2023-06-19T13:27:34;4.97;;;3.83;;
7128;SDS011;3606;52.930;8.644;2023-06-19T13:30:00;4.28;;;3.88;;
7128;SDS011;3606;52.930;8.644;2023-06-19T13:32:26;5.38;;;4.22;;
7128;SDS011;3606;52.930;8.644;2023-06-19T13:34:52;4.60;;;4.20;;
7128;SDS011;3606;52.930;8.644;2023-06-19T13:37:18;6.60;;;4.28;;
7128;SDS011;3606;52.930;8.644;2023-06-19T13:39:44;5.80;;;4.57;;
7128;SDS011;3606;52.930;8.644;2023-06-19T13:42:10;4.47;;;4.15;;
7128;SDS011;3606;52.930;8.644;2023-06-19T13:44:36;8.10;;;4.30;;
7128;SDS011;3606;52.930;8.644;2023-06-19T13:47:02;5.00;;;4.60;;
7128;SDS011;3606;52.930;8.644;2023-06-19T13:49:28;4.70;;;4.30;;
7128;SDS011;3606;52.930;8.644;2023-06-19T13:51:54;5.22;;;4.43;;
7128;SDS011;3606;52.930;8.644;2023-06-19T13:54:20;4.40;;;4.00;;
7128;SDS011;3606;52.930;8.644;2023-06-19T13:56:46;5.30;;;4.80;;
7128;SDS011;3606;52.930;8.644;2023-06-19T13:59:12;5.60;;;4.78;;
7128;SDS011;3606;52.930;8.644;2023-06-19T14:01:38;5.35;;;4.85;;
7128;SDS011;3606;52.930;8.644;2023-06-19T14:04:04;5.85;;;5.15;;
7128;SDS011;3606;52.930;8.644;2023-06-19T14:06:30;7.40;;;5.07;;
7128;SDS011;3606;52.930;8.644;2023-06-19T14:08:55;5.40;;;4.90;;
7128;SDS011;3606;52.930;8.644;2023-06-19T14:11:21;5.57;;;5.07;;
7128;SDS011;3606;52.930;8.644;2023-06-19T14:13:47;5.90;;;4.97;;
7128;SDS011;3606;52.930;8.644;2023-06-19T14:16:12;4.90;;;4.22;;
7128;SDS011;3606;52.930;8.644;2023-06-19T14:18:38;7.50;;;5.13;;
7128;SDS011;3606;52.930;8.644;2023-06-19T14:21:03;8.48;;;5.38;;
7128;SDS011;3606;52.930;8.644;2023-06-19T14:23:29;5.50;;;5.00;;
7128;SDS011;3606;52.930;8.644;2023-06-19T14:25:56;4.85;;;4.38;;
7128;SDS011;3606;52.930;8.644;2023-06-19T14:28:21;4.70;;;4.30;;
7128;SDS011;3606;52.930;8.644;2023-06-19T14:30:47;4.82;;;4.25;;
7128;SDS011;3606;52.930;8.644;2023-06-19T14:33:12;4.75;;;4.35;;
7128;SDS011;3606;52.930;8.644;2023-06-19T14:35:43;4.97;;;4.35;;
7128;SDS011;3606;52.930;8.644;2023-06-19T14:38:11;5.07;;;4.63;;
7128;SDS011;3606;52.930;8.644;2023-06-19T14:40:38;5.10;;;4.60;;
7128;SDS011;3606;52.930;8.644;2023-06-19T14:43:04;5.53;;;4.80;;
7128;SDS011;3606;52.930;8.644;2023-06-19T14:45:30;7.13;;;4.90;;
7128;SDS011;3606;52.930;8.644;2023-06-19T14:47:55;6.45;;;5.65;;
7128;SDS011;3606;52.930;8.644;2023-06-19T14:50:21;7.82;;;5.30;;
7128;SDS011;3606;52.930;8.644;2023-06-19T14:52:47;6.78;;;4.97;;
7128;SDS011;3606;52.930;8.644;2023-06-19T14:55:12;6.03;;;5.50;;
7128;SDS011;3606;52.930;8.644;2023-06-19T14:57:38;5.20;;;4.70;;
7128;SDS011;3606;52.930;8.644;2023-06-19T15:00:04;5.00;;;4.60;;
7128;SDS011;3606;52.930;8.644;2023-06-19T15:02:30;5.50;;;5.00;;
7128;SDS011;3606;52.930;8.644;2023-06-19T15:04:56;5.30;;;4.80;;
7128;SDS011;3606;52.930;8.644;2023-06-19T15:07:22;5.82;;;5.30;;
7128;SDS011;3606;52.930;8.644;2023-06-19T15:09:47;6.53;;;4.95;;
7128;SDS011;3606;52.930;8.644;2023-06-19T15:12:13;9.45;;;4.70;;
7128;SDS011;3606;52.930;8.644;2023-06-19T15:14:38;5.15;;;4.75;;
7128;SDS011;3606;52.930;8.644;2023-06-19T15:17:06;5.63;;;4.63;;
7128;SDS011;3606;52.930;8.644;2023-06-19T15:19:31;5.40;;;4.90;;
7128;SDS011;3606;52.930;8.644;2023-06-19T15:21:57;6.53;;;4.65;;
7128;SDS011;3606;52.930;8.644;2023-06-19T15:24:23;7.82;;;4.90;;
7128;SDS011;3606;52.930;8.644;2023-06-19T15:26:48;6.22;;;4.93;;
7128;SDS011;3606;52.930;8.644;2023-06-19T15:29:14;6.68;;;5.05;;
7128;SDS011;3606;52.930;8.644;2023-06-19T15:31:40;5.38;;;4.53;;
7128;SDS011;3606;52.930;8.644;2023-06-19T15:34:05;8.30;;;4.95;;
7128;SDS011;3606;52.930;8.644;2023-06-19T15:36:31;6.30;;;5.22;;
7128;SDS011;3606;52.930;8.644;2023-06-19T15:38:57;7.13;;;5.03;;
7128;SDS011;3606;52.930;8.644;2023-06-19T15:41:22;5.95;;;4.70;;
7128;SDS011;3606;52.930;8.644;2023-06-19T15:43:48;6.03;;;4.70;;
7128;SDS011;3606;52.930;8.644;2023-06-19T15:46:14;8.25;;;4.82;;
7128;SDS011;3606;52.930;8.644;2023-06-19T15:48:40;6.82;;;5.47;;
7128;SDS011;3606;52.930;8.644;2023-06-19T15:51:07;9.25;;;5.30;;
7128;SDS011;3606;52.930;8.644;2023-06-19T15:53:32;5.60;;;5.10;;
7128;SDS011;3606;52.930;8.644;2023-06-19T15:55:58;5.90;;;5.30;;
7128;SDS011;3606;52.930;8.644;2023-06-19T15:58:24;5.55;;;5.05;;
7128;SDS011;3606;52.930;8.644;2023-06-19T16:00:49;10.18;;;5.88;;
7128;SDS011;3606;52.930;8.644;2023-06-19T16:03:18;8.13;;;5.78;;